sensor_id;sensor_type;location;lat;lon;timestamp;temperature;humidity
13174;DHT22;6652;48.802;9.190;2023-11-19T00:00:30;8.80;99.90
13174;DHT22;6652;48.802;9.190;2023-11-19T00:02:56;8.80;99.90
13174;DHT22;6652;48.802;9.190;2023-11-19T00:05:23;8.80;99.90
13174;DHT22;6652;48.802;9.190;2023-11-19T00:07:49;8.80;99.90
13174;DHT22;6652;48.802;9.190;2023-11-19T00:10:18;8.80;99.90
13174;DHT22;6652;48.802;9.190;2023-11-19T00:12:47;8.90;99.90
13174;DHT22;6652;48.802;9.190;2023-11-19T00:15:14;8.90;99.90
13174;DHT22;6652;48.802;9.190;2023-11-19T00:17:41;8.90;99.90
13174;DHT22;6652;48.802;9.190;2023-11-19T00:20:10;8.90;99.90
13174;DHT22;6652;48.802;9.190;2023-11-19T00:22:37;8.90;99.90
13174;DHT22;6652;48.802;9.190;2023-11-19T00:25:05;9.00;99.90
13174;DHT22;6652;48.802;9.190;2023-11-19T00:27:33;9.00;99.90
13174;DHT22;6652;48.802;9.190;2023-11-19T00:30:00;9.00;99.90
13174;DHT22;6652;48.802;9.190;2023-11-19T00:32:27;9.00;99.90
13174;DHT22;6652;48.802;9.190;2023-11-19T00:34:55;9.10;99.90
13174;DHT22;6652;48.802;9.190;2023-11-19T00:37:21;9.10;99.90
13174;DHT22;6652;48.802;9.190;2023-11-19T00:39:48;9.10;99.90
13174;DHT22;6652;48.802;9.190;2023-11-19T00:42:15;9.10;99.90
13174;DHT22;6652;48.802;9.190;2023-11-19T00:44:43;9.10;99.90
13174;DHT22;6652;48.802;9.190;2023-11-19T00:47:11;9.20;99.90
13174;DHT22;6652;48.802;9.190;2023-11-19T00:49:37;9.20;99.90
13174;DHT22;6652;48.802;9.190;2023-11-19T00:52:05;9.20;99.90
13174;DHT22;6652;48.802;9.190;2023-11-19T00:54:32;9.30;99.90
13174;DHT22;6652;48.802;9.190;2023-11-19T00:56:59;9.30;99.90
13174;DHT22;6652;48.802;9.190;2023-11-19T00:59:26;9.30;99.90
13174;DHT22;6652;48.802;9.190;2023-11-19T01:01:55;9.30;99.90
13174;DHT22;6652;48.802;9.190;2023-11-19T01:04:22;9.40;99.90
13174;DHT22;6652;48.802;9.190;2023-11-19T01:06:49;9.30;99.90
13174;DHT22;6652;48.802;9.190;2023-11-19T01:09:16;9.30;99.90
13174;DHT22;6652;48.802;9.190;2023-11-19T01:11:43;9.30;99.90
13174;DHT22;6652;48.802;9.190;2023-11-19T01:14:10;9.30;99.90
13174;DHT22;6652;48.802;9.190;2023-11-19T01:16:37;9.30;99.90
13174;DHT22;6652;48.802;9.190;2023-11-19T01:19:05;9.30;99.90
13174;DHT22;6652;48.802;9.190;2023-11-19T01:21:31;9.20;99.90
13174;DHT22;6652;48.802;9.190;2023-11-19T01:23:58;9.20;99.90
13174;DHT22;6652;48.802;9.190;2023-11-19T01:26:26;9.30;99.90
13174;DHT22;6652;48.802;9.190;2023-11-19T01:28:53;9.20;99.90
13174;DHT22;6652;48.802;9.190;2023-11-19T01:31:20;9.20;99.90
13174;DHT22;6652;48.802;9.190;2023-11-19T01:33:47;9.20;99.90
13174;DHT22;6652;48.802;9.190;2023-11-19T01:36:15;9.30;99.90
13174;DHT22;6652;48.802;9.190;2023-11-19T01:38:41;9.30;99.90
13174;DHT22;6652;48.802;9.190;2023-11-19T01:41:09;9.30;99.90
13174;DHT22;6652;48.802;9.190;2023-11-19T01:43:37;9.30;99.90
13174;DHT22;6652;48.802;9.190;2023-11-19T01:46:05;9.30;99.90
13174;DHT22;6652;48.802;9.190;2023-11-19T01:48:35;9.30;99.90
13174;DHT22;6652;48.802;9.190;2023-11-19T01:51:05;9.40;99.90
13174;DHT22;6652;48.802;9.190;2023-11-19T01:53:34;9.40;99.90
13174;DHT22;6652;48.802;9.190;2023-11-19T01:56:03;9.40;99.90
13174;DHT22;6652;48.802;9.190;2023-11-19T01:58:31;9.40;99.90
13174;DHT22;6652;48.802;9.190;2023-11-19T02:00:58;9.40;99.90
13174;DHT22;6652;48.802;9.190;2023-11-19T02:03:25;9.40;99.90
13174;DHT22;6652;48.802;9.190;2023-11-19T02:05:54;9.40;99.90
13174;DHT22;6652;48.802;9.190;2023-11-19T02:08:22;9.50;99.90
13174;DHT22;6652;48.802;9.190;2023-11-19T02:10:50;9.90;99.90
13174;DHT22;6652;48.802;9.190;2023-11-19T02:13:17;8.70;99.90
13174;DHT22;6652;48.802;9.190;2023-11-19T02:15:44;9.50;99.90
13174;DHT22;6652;48.802;9.190;2023-11-19T02:18:18;9.50;99.90
13174;DHT22;6652;48.802;9.190;2023-11-19T02:20:44;9.50;99.90
13174;DHT22;6652;48.802;9.190;2023-11-19T02:25:38;9.80;99.90
13174;DHT22;6652;48.802;9.190;2023-11-19T02:28:07;9.50;99.90
13174;DHT22;6652;48.802;9.190;2023-11-19T02:30:37;9.20;99.90
13174;DHT22;6652;48.802;9.190;2023-11-19T02:33:04;9.60;99.90
13174;DHT22;6652;48.802;9.190;2023-11-19T02:35:32;9.60;99.90
13174;DHT22;6652;48.802;9.190;2023-11-19T02:38:00;9.60;99.90
13174;DHT22;6652;48.802;9.190;2023-11-19T02:40:29;10.10;99.90
13174;DHT22;6652;48.802;9.190;2023-11-19T02:42:56;9.60;99.90
13174;DHT22;6652;48.802;9.190;2023-11-19T02:45:26;9.60;99.90
13174;DHT22;6652;48.802;9.190;2023-11-19T02:47:53;9.60;99.90
13174;DHT22;6652;48.802;9.190;2023-11-19T02:50:21;9.60;99.90
13174;DHT22;6652;48.802;9.190;2023-11-19T02:52:52;9.50;99.90
13174;DHT22;6652;48.802;9.190;2023-11-19T02:55:21;9.60;99.90
13174;DHT22;6652;48.802;9.190;2023-11-19T02:57:49;9.60;99.90
13174;DHT22;6652;48.802;9.190;2023-11-19T03:00:20;9.60;99.90
13174;DHT22;6652;48.802;9.190;2023-11-19T03:02:50;9.60;99.90
13174;DHT22;6652;48.802;9.190;2023-11-19T03:05:25;9.60;99.90
13174;DHT22;6652;48.802;9.190;2023-11-19T03:07:52;9.60;99.90
13174;DHT22;6652;48.802;9.190;2023-11-19T03:10:19;10.50;99.90
13174;DHT22;6652;48.802;9.190;2023-11-19T03:12:46;9.90;99.90
13174;DHT22;6652;48.802;9.190;2023-11-19T03:15:12;9.70;99.90
13174;DHT22;6652;48.802;9.190;2023-11-19T03:17:40;9.70;99.90
13174;DHT22;6652;48.802;9.190;2023-11-19T03:20:10;9.60;99.90
13174;DHT22;6652;48.802;9.190;2023-11-19T03:22:41;9.60;99.90
13174;DHT22;6652;48.802;9.190;2023-11-19T03:25:08;9.60;99.90
13174;DHT22;6652;48.802;9.190;2023-11-19T03:27:35;9.70;99.90
13174;DHT22;6652;48.802;9.190;2023-11-19T03:30:04;9.30;99.90
13174;DHT22;6652;48.802;9.190;2023-11-19T03:32:32;9.70;99.90
13174;DHT22;6652;48.802;9.190;2023-11-19T03:35:00;9.70;99.90
13174;DHT22;6652;48.802;9.190;2023-11-19T03:37:28;9.70;99.90
13174;DHT22;6652;48.802;9.190;2023-11-19T03:39:56;9.70;99.90
13174;DHT22;6652;48.802;9.190;2023-11-19T03:42:25;9.70;99.90
13174;DHT22;6652;48.802;9.190;2023-11-19T03:44:52;9.70;99.90
13174;DHT22;6652;48.802;9.190;2023-11-19T03:47:19;9.60;99.90
13174;DHT22;6652;48.802;9.190;2023-11-19T03:49:47;10.10;99.90
13174;DHT22;6652;48.802;9.190;2023-11-19T03:52:15;10.80;99.90
13174;DHT22;6652;48.802;9.190;2023-11-19T03:54:43;9.80;99.90
13174;DHT22;6652;48.802;9.190;2023-11-19T03:57:11;10.40;99.90
13174;DHT22;6652;48.802;9.190;2023-11-19T03:59:38;10.50;99.90
13174;DHT22;6652;48.802;9.190;2023-11-19T04:02:05;9.90;99.90
13174;DHT22;6652;48.802;9.190;2023-11-19T04:04:32;9.90;99.90
13174;DHT22;6652;48.802;9.190;2023-11-19T04:06:59;11.00;99.90
13174;DHT22;6652;48.802;9.190;2023-11-19T04:09:26;11.40;99.90
13174;DHT22;6652;48.802;9.190;2023-11-19T04:11:55;10.00;99.90
13174;DHT22;6652;48.802;9.190;2023-11-19T04:14:22;10.00;99.90
13174;DHT22;6652;48.802;9.190;2023-11-19T04:16:49;10.10;99.90
13174;DHT22;6652;48.802;9.190;2023-11-19T04:19:16;10.10;99.90
13174;DHT22;6652;48.802;9.190;2023-11-19T04:21:43;10.20;99.90
13174;DHT22;6652;48.802;9.190;2023-11-19T04:24:10;10.30;99.90
13174;DHT22;6652;48.802;9.190;2023-11-19T04:26:40;11.90;99.90
13174;DHT22;6652;48.802;9.190;2023-11-19T04:29:11;10.50;99.90
13174;DHT22;6652;48.802;9.190;2023-11-19T04:31:38;10.60;99.90
13174;DHT22;6652;48.802;9.190;2023-11-19T04:34:05;10.60;99.90
13174;DHT22;6652;48.802;9.190;2023-11-19T04:36:32;10.70;99.90
13174;DHT22;6652;48.802;9.190;2023-11-19T04:39:00;12.10;99.90
13174;DHT22;6652;48.802;9.190;2023-11-19T04:41:27;10.90;99.90
13174;DHT22;6652;48.802;9.190;2023-11-19T04:43:54;11.70;99.90
13174;DHT22;6652;48.802;9.190;2023-11-19T04:46:23;11.00;99.90
13174;DHT22;6652;48.802;9.190;2023-11-19T04:48:50;11.00;99.90
13174;DHT22;6652;48.802;9.190;2023-11-19T04:51:17;11.00;99.90
13174;DHT22;6652;48.802;9.190;2023-11-19T04:53:44;11.40;99.90
13174;DHT22;6652;48.802;9.190;2023-11-19T04:56:11;11.00;99.90
13174;DHT22;6652;48.802;9.190;2023-11-19T04:58:39;11.10;99.90
13174;DHT22;6652;48.802;9.190;2023-11-19T05:01:06;11.10;99.90
13174;DHT22;6652;48.802;9.190;2023-11-19T05:03:34;11.10;99.90
13174;DHT22;6652;48.802;9.190;2023-11-19T05:06:01;11.10;99.90
13174;DHT22;6652;48.802;9.190;2023-11-19T05:08:28;11.20;99.90
13174;DHT22;6652;48.802;9.190;2023-11-19T05:10:55;11.20;99.90
13174;DHT22;6652;48.802;9.190;2023-11-19T05:13:23;11.20;99.90
13174;DHT22;6652;48.802;9.190;2023-11-19T05:15:49;11.20;99.90
13174;DHT22;6652;48.802;9.190;2023-11-19T05:18:16;11.20;99.90
13174;DHT22;6652;48.802;9.190;2023-11-19T05:20:45;11.40;99.90
13174;DHT22;6652;48.802;9.190;2023-11-19T05:23:12;11.30;99.90
13174;DHT22;6652;48.802;9.190;2023-11-19T05:25:39;11.30;99.90
13174;DHT22;6652;48.802;9.190;2023-11-19T05:28:05;11.30;99.90
13174;DHT22;6652;48.802;9.190;2023-11-19T05:30:32;11.30;99.90
13174;DHT22;6652;48.802;9.190;2023-11-19T05:32:59;11.40;99.90
13174;DHT22;6652;48.802;9.190;2023-11-19T05:35:27;12.00;99.90
13174;DHT22;6652;48.802;9.190;2023-11-19T05:37:55;11.60;99.90
13174;DHT22;6652;48.802;9.190;2023-11-19T05:40:22;12.00;99.90
13174;DHT22;6652;48.802;9.190;2023-11-19T05:42:49;11.80;99.90
13174;DHT22;6652;48.802;9.190;2023-11-19T05:45:16;11.40;99.90
13174;DHT22;6652;48.802;9.190;2023-11-19T05:47:42;11.40;99.90
13174;DHT22;6652;48.802;9.190;2023-11-19T05:50:10;12.00;99.90
13174;DHT22;6652;48.802;9.190;2023-11-19T05:52:37;11.60;99.90
13174;DHT22;6652;48.802;9.190;2023-11-19T05:55:06;11.40;99.90
13174;DHT22;6652;48.802;9.190;2023-11-19T05:57:35;11.50;99.90
13174;DHT22;6652;48.802;9.190;2023-11-19T06:00:03;11.50;99.90
13174;DHT22;6652;48.802;9.190;2023-11-19T06:02:32;11.50;99.90
13174;DHT22;6652;48.802;9.190;2023-11-19T06:04:59;11.50;99.90
13174;DHT22;6652;48.802;9.190;2023-11-19T06:07:26;11.50;99.90
13174;DHT22;6652;48.802;9.190;2023-11-19T06:09:53;11.50;99.90
13174;DHT22;6652;48.802;9.190;2023-11-19T06:12:21;12.00;99.90
13174;DHT22;6652;48.802;9.190;2023-11-19T06:14:48;11.40;99.90
13174;DHT22;6652;48.802;9.190;2023-11-19T06:17:15;11.40;99.90
13174;DHT22;6652;48.802;9.190;2023-11-19T06:19:42;11.40;99.90
13174;DHT22;6652;48.802;9.190;2023-11-19T06:22:12;11.60;99.90
13174;DHT22;6652;48.802;9.190;2023-11-19T06:24:39;12.90;99.90
13174;DHT22;6652;48.802;9.190;2023-11-19T06:27:09;11.40;99.90
13174;DHT22;6652;48.802;9.190;2023-11-19T06:29:38;11.40;99.90
13174;DHT22;6652;48.802;9.190;2023-11-19T06:32:06;11.90;99.90
13174;DHT22;6652;48.802;9.190;2023-11-19T06:34:33;11.40;99.90
13174;DHT22;6652;48.802;9.190;2023-11-19T06:37:00;11.90;99.90
13174;DHT22;6652;48.802;9.190;2023-11-19T06:39:28;11.50;99.90
13174;DHT22;6652;48.802;9.190;2023-11-19T06:41:55;11.50;99.90
13174;DHT22;6652;48.802;9.190;2023-11-19T06:44:22;11.60;99.90
13174;DHT22;6652;48.802;9.190;2023-11-19T06:46:51;11.90;99.90
13174;DHT22;6652;48.802;9.190;2023-11-19T06:49:19;11.60;99.90
13174;DHT22;6652;48.802;9.190;2023-11-19T06:51:47;12.30;99.90
13174;DHT22;6652;48.802;9.190;2023-11-19T06:54:14;11.70;99.90
13174;DHT22;6652;48.802;9.190;2023-11-19T06:56:43;12.00;99.90
13174;DHT22;6652;48.802;9.190;2023-11-19T06:59:09;11.60;99.90
13174;DHT22;6652;48.802;9.190;2023-11-19T07:01:37;11.70;99.90
13174;DHT22;6652;48.802;9.190;2023-11-19T07:04:06;11.70;99.90
13174;DHT22;6652;48.802;9.190;2023-11-19T07:06:41;11.80;99.90
13174;DHT22;6652;48.802;9.190;2023-11-19T07:09:08;11.70;99.90
13174;DHT22;6652;48.802;9.190;2023-11-19T07:11:36;11.70;99.90
13174;DHT22;6652;48.802;9.190;2023-11-19T07:14:04;11.60;99.90
13174;DHT22;6652;48.802;9.190;2023-11-19T07:16:32;11.60;99.90
13174;DHT22;6652;48.802;9.190;2023-11-19T07:19:00;12.70;99.90
13174;DHT22;6652;48.802;9.190;2023-11-19T07:21:28;11.60;99.90
13174;DHT22;6652;48.802;9.190;2023-11-19T07:23:55;11.60;99.90
13174;DHT22;6652;48.802;9.190;2023-11-19T07:26:22;11.60;99.90
13174;DHT22;6652;48.802;9.190;2023-11-19T07:28:49;11.90;99.90
13174;DHT22;6652;48.802;9.190;2023-11-19T07:31:16;12.10;99.90
13174;DHT22;6652;48.802;9.190;2023-11-19T07:33:44;11.70;99.90
13174;DHT22;6652;48.802;9.190;2023-11-19T07:36:12;11.70;99.90
13174;DHT22;6652;48.802;9.190;2023-11-19T07:38:40;11.70;99.90
13174;DHT22;6652;48.802;9.190;2023-11-19T07:41:07;11.70;99.90
13174;DHT22;6652;48.802;9.190;2023-11-19T07:43:35;11.80;99.90
13174;DHT22;6652;48.802;9.190;2023-11-19T07:46:02;11.80;99.90
13174;DHT22;6652;48.802;9.190;2023-11-19T07:48:30;11.70;99.90
13174;DHT22;6652;48.802;9.190;2023-11-19T07:50:57;11.90;99.90
13174;DHT22;6652;48.802;9.190;2023-11-19T07:53:26;12.90;99.90
13174;DHT22;6652;48.802;9.190;2023-11-19T07:56:01;12.20;99.90
13174;DHT22;6652;48.802;9.190;2023-11-19T07:58:27;12.20;99.90
13174;DHT22;6652;48.802;9.190;2023-11-19T08:00:54;11.80;99.90
13174;DHT22;6652;48.802;9.190;2023-11-19T08:03:22;11.90;99.90
13174;DHT22;6652;48.802;9.190;2023-11-19T08:05:49;11.90;99.90
13174;DHT22;6652;48.802;9.190;2023-11-19T08:08:16;11.90;99.90
13174;DHT22;6652;48.802;9.190;2023-11-19T08:10:43;12.40;99.90
13174;DHT22;6652;48.802;9.190;2023-11-19T08:13:13;12.00;99.90
13174;DHT22;6652;48.802;9.190;2023-11-19T08:15:40;12.10;99.90
13174;DHT22;6652;48.802;9.190;2023-11-19T08:18:30;12.20;99.90
13174;DHT22;6652;48.802;9.190;2023-11-19T08:21:16;12.30;99.90
13174;DHT22;6652;48.802;9.190;2023-11-19T08:23:43;12.60;99.90
13174;DHT22;6652;48.802;9.190;2023-11-19T08:26:09;12.90;99.90
13174;DHT22;6652;48.802;9.190;2023-11-19T08:28:38;13.10;99.90
13174;DHT22;6652;48.802;9.190;2023-11-19T08:31:04;13.30;99.90
13174;DHT22;6652;48.802;9.190;2023-11-19T08:33:31;13.30;99.90
13174;DHT22;6652;48.802;9.190;2023-11-19T08:35:58;13.40;99.90
13174;DHT22;6652;48.802;9.190;2023-11-19T08:38:26;13.40;99.90
13174;DHT22;6652;48.802;9.190;2023-11-19T08:40:52;13.70;99.90
13174;DHT22;6652;48.802;9.190;2023-11-19T08:43:24;15.40;99.90
13174;DHT22;6652;48.802;9.190;2023-11-19T08:45:53;17.90;99.90
13174;DHT22;6652;48.802;9.190;2023-11-19T08:48:20;19.10;99.90
13174;DHT22;6652;48.802;9.190;2023-11-19T08:50:46;18.40;99.90
13174;DHT22;6652;48.802;9.190;2023-11-19T08:53:13;17.40;99.90
13174;DHT22;6652;48.802;9.190;2023-11-19T08:55:40;16.60;99.90
13174;DHT22;6652;48.802;9.190;2023-11-19T08:58:07;15.80;99.90
13174;DHT22;6652;48.802;9.190;2023-11-19T09:00:34;15.30;99.90
13174;DHT22;6652;48.802;9.190;2023-11-19T09:03:02;15.00;99.90
13174;DHT22;6652;48.802;9.190;2023-11-19T09:05:29;15.00;99.90
13174;DHT22;6652;48.802;9.190;2023-11-19T09:07:56;15.80;99.90
13174;DHT22;6652;48.802;9.190;2023-11-19T09:10:23;18.20;99.90
13174;DHT22;6652;48.802;9.190;2023-11-19T09:12:49;18.90;99.90
13174;DHT22;6652;48.802;9.190;2023-11-19T09:15:16;20.00;99.90
13174;DHT22;6652;48.802;9.190;2023-11-19T09:17:43;20.80;99.90
13174;DHT22;6652;48.802;9.190;2023-11-19T09:20:12;20.30;99.90
13174;DHT22;6652;48.802;9.190;2023-11-19T09:22:40;19.20;99.90
13174;DHT22;6652;48.802;9.190;2023-11-19T09:25:08;18.00;99.90
13174;DHT22;6652;48.802;9.190;2023-11-19T09:27:34;17.10;99.90
13174;DHT22;6652;48.802;9.190;2023-11-19T09:30:01;16.40;99.90
13174;DHT22;6652;48.802;9.190;2023-11-19T09:32:29;16.00;99.90
13174;DHT22;6652;48.802;9.190;2023-11-19T09:34:56;15.70;99.90
13174;DHT22;6652;48.802;9.190;2023-11-19T09:37:24;15.50;99.90
13174;DHT22;6652;48.802;9.190;2023-11-19T09:39:51;15.60;99.90
13174;DHT22;6652;48.802;9.190;2023-11-19T09:42:19;16.30;99.90
13174;DHT22;6652;48.802;9.190;2023-11-19T09:44:47;17.10;99.90
13174;DHT22;6652;48.802;9.190;2023-11-19T09:47:17;17.20;99.90
13174;DHT22;6652;48.802;9.190;2023-11-19T09:49:45;17.30;99.90
13174;DHT22;6652;48.802;9.190;2023-11-19T09:52:13;18.70;99.90
13174;DHT22;6652;48.802;9.190;2023-11-19T09:54:41;20.70;99.90
13174;DHT22;6652;48.802;9.190;2023-11-19T09:57:08;22.40;99.90
13174;DHT22;6652;48.802;9.190;2023-11-19T09:59:37;23.00;99.90
13174;DHT22;6652;48.802;9.190;2023-11-19T10:02:05;24.40;99.90
13174;DHT22;6652;48.802;9.190;2023-11-19T10:04:35;23.60;99.90
13174;DHT22;6652;48.802;9.190;2023-11-19T10:07:02;22.10;99.90
13174;DHT22;6652;48.802;9.190;2023-11-19T10:09:29;20.50;99.90
13174;DHT22;6652;48.802;9.190;2023-11-19T10:11:57;20.00;99.90
13174;DHT22;6652;48.802;9.190;2023-11-19T10:14:24;20.10;99.90
13174;DHT22;6652;48.802;9.190;2023-11-19T10:16:51;19.20;99.90
13174;DHT22;6652;48.802;9.190;2023-11-19T10:19:21;18.70;99.90
13174;DHT22;6652;48.802;9.190;2023-11-19T10:25:22;17.80;99.90
13174;DHT22;6652;48.802;9.190;2023-11-19T10:27:51;17.60;99.90
13174;DHT22;6652;48.802;9.190;2023-11-19T10:30:18;17.50;99.90
13174;DHT22;6652;48.802;9.190;2023-11-19T10:32:45;17.30;99.90
13174;DHT22;6652;48.802;9.190;2023-11-19T10:35:12;17.20;99.90
13174;DHT22;6652;48.802;9.190;2023-11-19T10:37:39;17.20;99.90
13174;DHT22;6652;48.802;9.190;2023-11-19T10:40:10;17.10;99.90
13174;DHT22;6652;48.802;9.190;2023-11-19T10:42:37;17.00;99.90
13174;DHT22;6652;48.802;9.190;2023-11-19T10:45:21;17.00;99.90
13174;DHT22;6652;48.802;9.190;2023-11-19T10:47:51;17.10;99.90
13174;DHT22;6652;48.802;9.190;2023-11-19T10:50:18;17.10;99.90
13174;DHT22;6652;48.802;9.190;2023-11-19T10:52:46;17.20;99.90
13174;DHT22;6652;48.802;9.190;2023-11-19T10:55:15;17.30;99.90
13174;DHT22;6652;48.802;9.190;2023-11-19T10:57:47;17.40;99.90
13174;DHT22;6652;48.802;9.190;2023-11-19T11:00:19;17.40;99.90
13174;DHT22;6652;48.802;9.190;2023-11-19T11:02:50;17.30;99.90
13174;DHT22;6652;48.802;9.190;2023-11-19T11:05:21;17.40;99.90
13174;DHT22;6652;48.802;9.190;2023-11-19T11:07:49;17.50;99.90
13174;DHT22;6652;48.802;9.190;2023-11-19T11:10:18;17.50;99.90
13174;DHT22;6652;48.802;9.190;2023-11-19T11:12:47;17.60;99.90
13174;DHT22;6652;48.802;9.190;2023-11-19T11:15:18;17.60;99.90
13174;DHT22;6652;48.802;9.190;2023-11-19T11:17:46;17.50;99.90
13174;DHT22;6652;48.802;9.190;2023-11-19T11:20:13;17.20;99.90
13174;DHT22;6652;48.802;9.190;2023-11-19T11:22:50;17.00;99.90
13174;DHT22;6652;48.802;9.190;2023-11-19T11:25:31;17.00;99.90
13174;DHT22;6652;48.802;9.190;2023-11-19T11:28:12;16.90;99.90
13174;DHT22;6652;48.802;9.190;2023-11-19T11:30:56;16.90;99.90
13174;DHT22;6652;48.802;9.190;2023-11-19T11:33:40;16.90;99.90
13174;DHT22;6652;48.802;9.190;2023-11-19T11:36:30;16.90;99.90
13174;DHT22;6652;48.802;9.190;2023-11-19T11:38:58;16.80;99.90
13174;DHT22;6652;48.802;9.190;2023-11-19T11:41:26;16.70;99.90
13174;DHT22;6652;48.802;9.190;2023-11-19T11:43:53;16.50;99.90
13174;DHT22;6652;48.802;9.190;2023-11-19T11:46:55;16.50;99.90
13174;DHT22;6652;48.802;9.190;2023-11-19T11:49:26;16.30;99.90
13174;DHT22;6652;48.802;9.190;2023-11-19T11:51:59;16.30;99.90
13174;DHT22;6652;48.802;9.190;2023-11-19T11:54:26;16.30;99.90
13174;DHT22;6652;48.802;9.190;2023-11-19T11:57:04;16.30;99.90
13174;DHT22;6652;48.802;9.190;2023-11-19T11:59:37;16.30;99.90
13174;DHT22;6652;48.802;9.190;2023-11-19T12:02:08;16.30;99.90
13174;DHT22;6652;48.802;9.190;2023-11-19T12:04:35;16.40;99.90
13174;DHT22;6652;48.802;9.190;2023-11-19T12:07:04;16.50;99.90
13174;DHT22;6652;48.802;9.190;2023-11-19T12:09:31;16.60;99.90
13174;DHT22;6652;48.802;9.190;2023-11-19T12:12:11;16.50;99.90
13174;DHT22;6652;48.802;9.190;2023-11-19T12:15:03;16.60;99.90
13174;DHT22;6652;48.802;9.190;2023-11-19T12:20:18;16.90;99.90
13174;DHT22;6652;48.802;9.190;2023-11-19T12:22:46;16.80;99.90
13174;DHT22;6652;48.802;9.190;2023-11-19T12:25:16;16.80;99.90
13174;DHT22;6652;48.802;9.190;2023-11-19T12:27:47;16.80;99.90
13174;DHT22;6652;48.802;9.190;2023-11-19T12:30:17;16.70;99.90
13174;DHT22;6652;48.802;9.190;2023-11-19T12:32:46;16.70;99.90
13174;DHT22;6652;48.802;9.190;2023-11-19T12:35:13;16.70;99.90
13174;DHT22;6652;48.802;9.190;2023-11-19T12:37:44;16.80;99.90
13174;DHT22;6652;48.802;9.190;2023-11-19T12:40:15;16.70;99.90
13174;DHT22;6652;48.802;9.190;2023-11-19T12:42:43;16.60;99.90
13174;DHT22;6652;48.802;9.190;2023-11-19T12:45:11;16.60;99.90
13174;DHT22;6652;48.802;9.190;2023-11-19T12:47:42;16.70;99.90
13174;DHT22;6652;48.802;9.190;2023-11-19T12:50:11;16.60;99.90
13174;DHT22;6652;48.802;9.190;2023-11-19T12:52:38;16.40;99.90
13174;DHT22;6652;48.802;9.190;2023-11-19T12:55:23;16.40;99.90
13174;DHT22;6652;48.802;9.190;2023-11-19T12:57:50;16.30;99.90
13174;DHT22;6652;48.802;9.190;2023-11-19T13:00:21;16.30;99.90
13174;DHT22;6652;48.802;9.190;2023-11-19T13:02:58;16.40;99.90
13174;DHT22;6652;48.802;9.190;2023-11-19T13:05:27;16.40;99.90
13174;DHT22;6652;48.802;9.190;2023-11-19T13:08:00;16.40;99.90
13174;DHT22;6652;48.802;9.190;2023-11-19T13:10:28;16.40;99.90
13174;DHT22;6652;48.802;9.190;2023-11-19T13:13:05;16.40;99.90
13174;DHT22;6652;48.802;9.190;2023-11-19T13:15:34;16.50;99.90
13174;DHT22;6652;48.802;9.190;2023-11-19T13:18:01;16.50;99.90
13174;DHT22;6652;48.802;9.190;2023-11-19T13:20:30;16.50;99.90
13174;DHT22;6652;48.802;9.190;2023-11-19T13:22:57;16.60;99.90
13174;DHT22;6652;48.802;9.190;2023-11-19T13:25:25;16.60;99.90
13174;DHT22;6652;48.802;9.190;2023-11-19T13:27:52;16.60;99.90
13174;DHT22;6652;48.802;9.190;2023-11-19T13:30:19;16.50;99.90
13174;DHT22;6652;48.802;9.190;2023-11-19T13:32:47;16.40;99.90
13174;DHT22;6652;48.802;9.190;2023-11-19T13:35:14;16.30;99.90
13174;DHT22;6652;48.802;9.190;2023-11-19T13:37:44;16.10;99.90
13174;DHT22;6652;48.802;9.190;2023-11-19T13:40:11;16.10;99.90
13174;DHT22;6652;48.802;9.190;2023-11-19T13:42:40;16.10;99.90
13174;DHT22;6652;48.802;9.190;2023-11-19T13:45:08;16.00;99.90
13174;DHT22;6652;48.802;9.190;2023-11-19T13:47:38;15.80;99.90
13174;DHT22;6652;48.802;9.190;2023-11-19T13:50:07;15.80;99.90
13174;DHT22;6652;48.802;9.190;2023-11-19T13:52:35;15.80;99.90
13174;DHT22;6652;48.802;9.190;2023-11-19T13:55:06;15.80;99.90
13174;DHT22;6652;48.802;9.190;2023-11-19T13:57:34;15.80;99.90
13174;DHT22;6652;48.802;9.190;2023-11-19T14:00:01;15.70;99.90
13174;DHT22;6652;48.802;9.190;2023-11-19T14:02:30;15.70;99.90
13174;DHT22;6652;48.802;9.190;2023-11-19T14:04:57;15.70;99.90
13174;DHT22;6652;48.802;9.190;2023-11-19T14:07:24;15.60;99.90
13174;DHT22;6652;48.802;9.190;2023-11-19T14:09:51;15.50;99.90
13174;DHT22;6652;48.802;9.190;2023-11-19T14:12:19;15.40;99.90
13174;DHT22;6652;48.802;9.190;2023-11-19T14:14:46;15.30;99.90
13174;DHT22;6652;48.802;9.190;2023-11-19T14:17:13;15.10;99.90
13174;DHT22;6652;48.802;9.190;2023-11-19T14:19:40;15.20;99.90
13174;DHT22;6652;48.802;9.190;2023-11-19T14:22:07;15.10;99.90
13174;DHT22;6652;48.802;9.190;2023-11-19T14:24:35;15.10;99.90
13174;DHT22;6652;48.802;9.190;2023-11-19T14:27:02;15.00;99.90
13174;DHT22;6652;48.802;9.190;2023-11-19T14:29:30;15.00;99.90
13174;DHT22;6652;48.802;9.190;2023-11-19T14:31:58;14.90;99.90
13174;DHT22;6652;48.802;9.190;2023-11-19T14:34:25;15.00;99.90
13174;DHT22;6652;48.802;9.190;2023-11-19T14:36:52;14.90;99.90
13174;DHT22;6652;48.802;9.190;2023-11-19T14:39:19;14.80;99.90
13174;DHT22;6652;48.802;9.190;2023-11-19T14:41:46;14.70;99.90
13174;DHT22;6652;48.802;9.190;2023-11-19T14:44:13;14.70;99.90
13174;DHT22;6652;48.802;9.190;2023-11-19T14:46:41;14.70;99.90
13174;DHT22;6652;48.802;9.190;2023-11-19T14:49:08;14.60;99.90
13174;DHT22;6652;48.802;9.190;2023-11-19T14:51:35;14.60;99.90
13174;DHT22;6652;48.802;9.190;2023-11-19T14:54:03;14.60;99.90
13174;DHT22;6652;48.802;9.190;2023-11-19T14:56:30;14.50;99.90
13174;DHT22;6652;48.802;9.190;2023-11-19T14:58:56;14.40;99.90
13174;DHT22;6652;48.802;9.190;2023-11-19T15:01:24;14.40;99.90
13174;DHT22;6652;48.802;9.190;2023-11-19T15:03:52;14.30;99.90
13174;DHT22;6652;48.802;9.190;2023-11-19T15:06:23;14.40;99.90
13174;DHT22;6652;48.802;9.190;2023-11-19T15:08:50;14.20;99.90
13174;DHT22;6652;48.802;9.190;2023-11-19T15:11:17;14.20;99.90
13174;DHT22;6652;48.802;9.190;2023-11-19T15:13:44;14.10;99.90
13174;DHT22;6652;48.802;9.190;2023-11-19T15:16:10;14.10;99.90
13174;DHT22;6652;48.802;9.190;2023-11-19T15:18:39;14.10;99.90
13174;DHT22;6652;48.802;9.190;2023-11-19T15:21:08;14.00;99.90
13174;DHT22;6652;48.802;9.190;2023-11-19T15:23:34;14.10;99.90
13174;DHT22;6652;48.802;9.190;2023-11-19T15:26:02;13.90;99.90
13174;DHT22;6652;48.802;9.190;2023-11-19T15:28:29;13.80;99.90
13174;DHT22;6652;48.802;9.190;2023-11-19T15:30:56;13.80;99.90
13174;DHT22;6652;48.802;9.190;2023-11-19T15:33:23;13.70;99.90
13174;DHT22;6652;48.802;9.190;2023-11-19T15:35:50;13.70;99.90
13174;DHT22;6652;48.802;9.190;2023-11-19T15:38:18;13.70;99.90
13174;DHT22;6652;48.802;9.190;2023-11-19T15:40:45;13.60;99.90
13174;DHT22;6652;48.802;9.190;2023-11-19T15:43:12;13.50;99.90
13174;DHT22;6652;48.802;9.190;2023-11-19T15:45:39;13.50;99.90
13174;DHT22;6652;48.802;9.190;2023-11-19T15:48:05;13.90;99.90
13174;DHT22;6652;48.802;9.190;2023-11-19T15:50:32;13.50;99.90
13174;DHT22;6652;48.802;9.190;2023-11-19T15:52:59;13.30;99.90
13174;DHT22;6652;48.802;9.190;2023-11-19T15:55:28;13.30;99.90
13174;DHT22;6652;48.802;9.190;2023-11-19T15:57:55;13.20;99.90
13174;DHT22;6652;48.802;9.190;2023-11-19T16:00:22;13.20;99.90
13174;DHT22;6652;48.802;9.190;2023-11-19T16:02:49;13.10;99.90
13174;DHT22;6652;48.802;9.190;2023-11-19T16:05:16;13.10;99.90